HERC1 NZWP-NZWP
Flight info
| Callsign | HERC1 |
|---|---|
| Flight time | 0h 27m |
| Altitude | 2000 |
| Route | NZWP NZWP |
| Aircraft | C130/M-S/L |
Departure
| Time | 2026-04-21 06:37 |
|---|---|
| Airport | RNZAF Base Auckland-Whenuapai (NZWP) |
Arrival
| Time | 2026-04-21 07:05 |
|---|---|
| Airport | RNZAF Base Auckland-Whenuapai (NZWP) |
| Time | Latitude | Longitude | Altitude | Speed | Heading |
|---|---|---|---|---|---|
| 2026-04-21 06:24 | -36.79135 | 174.62711 | 93 ft | 0 kts | 233° |
| 2026-04-21 06:26 | -36.79136 | 174.62708 | 93 ft | 1 kts | 258° |
| 2026-04-21 06:26 | -36.79126 | 174.62668 | 94 ft | 4 kts | 280° |
| 2026-04-21 06:27 | -36.79135 | 174.62635 | 94 ft | 0 kts | 215° |
| 2026-04-21 06:33 | -36.79162 | 174.62632 | 96 ft | 8 kts | 176° |
| 2026-04-21 06:33 | -36.79234 | 174.62547 | 102 ft | 24 kts | 231° |
| 2026-04-21 06:34 | -36.79355 | 174.62354 | 104 ft | 21 kts | 236° |
| 2026-04-21 06:34 | -36.79411 | 174.62261 | 109 ft | 10 kts | 231° |
| 2026-04-21 06:34 | -36.79448 | 174.62202 | 110 ft | 7 kts | 232° |
| 2026-04-21 06:34 | -36.79478 | 174.62153 | 111 ft | 6 kts | 232° |
| 2026-04-21 06:35 | -36.79505 | 174.62109 | 110 ft | 5 kts | 229° |
| 2026-04-21 06:35 | -36.79562 | 174.62076 | 111 ft | 15 kts | 175° |
| 2026-04-21 06:35 | -36.79606 | 174.62116 | 111 ft | 2 kts | 71° |
| 2026-04-21 06:35 | -36.79600 | 174.62122 | 110 ft | 4 kts | 52° |
| 2026-04-21 06:36 | -36.79599 | 174.62125 | 111 ft | 0 kts | 53° |
| 2026-04-21 06:36 | -36.79559 | 174.62192 | 110 ft | 36 kts | 53° |
| 2026-04-21 06:36 | -36.79268 | 174.62680 | 97 ft | 102 kts | 53° |
| 2026-04-21 06:37 | -36.78780 | 174.63475 | 423 ft | 120 kts | 56° |
| 2026-04-21 06:37 | -36.78259 | 174.64322 | 917 ft | 128 kts | 57° |
| 2026-04-21 06:37 | -36.77672 | 174.65295 | 1283 ft | 153 kts | 57° |
| 2026-04-21 06:37 | -36.76879 | 174.66383 | 1560 ft | 189 kts | 45° |
| 2026-04-21 06:38 | -36.75729 | 174.67464 | 1841 ft | 223 kts | 34° |
| 2026-04-21 06:38 | -36.74291 | 174.68563 | 1984 ft | 260 kts | 33° |
| 2026-04-21 06:38 | -36.72681 | 174.69803 | 2289 ft | 281 kts | 33° |
| 2026-04-21 06:38 | -36.70986 | 174.71116 | 2554 ft | 295 kts | 33° |
| 2026-04-21 06:39 | -36.69211 | 174.72525 | 2520 ft | 307 kts | 34° |
| 2026-04-21 06:39 | -36.67384 | 174.73962 | 2520 ft | 315 kts | 32° |
| 2026-04-21 06:39 | -36.65479 | 174.75383 | 2432 ft | 323 kts | 32° |
| 2026-04-21 06:39 | -36.63576 | 174.76795 | 2427 ft | 310 kts | 32° |
| 2026-04-21 06:40 | -36.61868 | 174.78349 | 1996 ft | 299 kts | 48° |
| 2026-04-21 06:40 | -36.61031 | 174.80575 | 1633 ft | 278 kts | 89° |
| 2026-04-21 06:40 | -36.61506 | 174.82685 | 1700 ft | 243 kts | 135° |
| 2026-04-21 06:40 | -36.62933 | 174.83300 | 1840 ft | 218 kts | 194° |
| 2026-04-21 06:41 | -36.63993 | 174.82037 | 1528 ft | 227 kts | 252° |
| 2026-04-21 06:41 | -36.63884 | 174.80088 | 1380 ft | 233 kts | 292° |
| 2026-04-21 06:41 | -36.62852 | 174.78508 | 1314 ft | 245 kts | 323° |
| 2026-04-21 06:41 | -36.61265 | 174.77744 | 1493 ft | 246 kts | 354° |
| 2026-04-21 06:42 | -36.59608 | 174.78052 | 1745 ft | 243 kts | 25° |
| 2026-04-21 06:42 | -36.58122 | 174.79110 | 1695 ft | 252 kts | 33° |
| 2026-04-21 06:42 | -36.56964 | 174.80613 | 1652 ft | 245 kts | 89° |
| 2026-04-21 06:42 | -36.57871 | 174.82045 | 1703 ft | 227 kts | 175° |
| 2026-04-21 06:43 | -36.59155 | 174.81080 | 1654 ft | 236 kts | 244° |
| 2026-04-21 06:43 | -36.59155 | 174.79093 | 1916 ft | 237 kts | 293° |
| 2026-04-21 06:43 | -36.57988 | 174.77663 | 2045 ft | 245 kts | 335° |
| 2026-04-21 06:43 | -36.56260 | 174.77185 | 1861 ft | 275 kts | 353° |
| 2026-04-21 06:44 | -36.54261 | 174.76927 | 1795 ft | 305 kts | 354° |
| 2026-04-21 06:44 | -36.52102 | 174.76687 | 2008 ft | 319 kts | 355° |
| 2026-04-21 06:44 | -36.49863 | 174.76456 | 2239 ft | 327 kts | 356° |
| 2026-04-21 06:44 | -36.47559 | 174.76342 | 2400 ft | 335 kts | 360° |
| 2026-04-21 06:45 | -36.45212 | 174.76426 | 2577 ft | 340 kts | 5° |
| 2026-04-21 06:45 | -36.42855 | 174.76822 | 2777 ft | 343 kts | 10° |
| 2026-04-21 06:45 | -36.40495 | 174.77362 | 2745 ft | 348 kts | 12° |
| 2026-04-21 06:45 | -36.38121 | 174.78041 | 1890 ft | 352 kts | 15° |
| 2026-04-21 06:46 | -36.35797 | 174.78934 | 1283 ft | 344 kts | 20° |
| 2026-04-21 06:46 | -36.33671 | 174.79885 | 1159 ft | 307 kts | 16° |
| 2026-04-21 06:46 | -36.31602 | 174.80424 | 1246 ft | 302 kts | 10° |
| 2026-04-21 06:46 | -36.29530 | 174.81036 | 1117 ft | 314 kts | 16° |
| 2026-04-21 06:47 | -36.27346 | 174.81619 | 1116 ft | 329 kts | 6° |
| 2026-04-21 06:47 | -36.25056 | 174.81430 | 1340 ft | 332 kts | 347° |
| 2026-04-21 06:47 | -36.22831 | 174.80560 | 1271 ft | 339 kts | 335° |
| 2026-04-21 06:47 | -36.20866 | 174.78998 | 1355 ft | 335 kts | 319° |
| 2026-04-21 06:48 | -36.19198 | 174.76989 | 1315 ft | 334 kts | 307° |
| 2026-04-21 06:48 | -36.17947 | 174.74593 | 1354 ft | 332 kts | 300° |
| 2026-04-21 06:48 | -36.16676 | 174.72207 | 1430 ft | 331 kts | 302° |
| 2026-04-21 06:48 | -36.15411 | 174.69808 | 1357 ft | 334 kts | 301° |
| 2026-04-21 06:49 | -36.14168 | 174.67392 | 1332 ft | 332 kts | 300° |
| 2026-04-21 06:49 | -36.13441 | 174.65940 | 1317 ft | 332 kts | 299° |
| 2026-04-21 06:50 | -36.13095 | 174.65206 | 1393 ft | 330 kts | 297° |
| 2026-04-21 06:50 | -36.12054 | 174.62733 | 1348 ft | 315 kts | 295° |
| 2026-04-21 06:50 | -36.11101 | 174.60473 | 1414 ft | 279 kts | 290° |
| 2026-04-21 06:51 | -36.10919 | 174.58210 | 1120 ft | 261 kts | 255° |
| 2026-04-21 06:51 | -36.11557 | 174.56204 | 1047 ft | 241 kts | 235° |
| 2026-04-21 06:51 | -36.12483 | 174.54483 | 882 ft | 234 kts | 234° |
| 2026-04-21 06:51 | -36.13341 | 174.52843 | 1183 ft | 219 kts | 238° |
| 2026-04-21 06:52 | -36.14175 | 174.51308 | 1401 ft | 223 kts | 226° |
| 2026-04-21 06:52 | -36.15320 | 174.49863 | 1558 ft | 250 kts | 225° |
| 2026-04-21 06:52 | -36.16530 | 174.48183 | 1777 ft | 272 kts | 227° |
| 2026-04-21 06:52 | -36.17776 | 174.46349 | 2124 ft | 283 kts | 229° |
| 2026-04-21 06:53 | -36.19082 | 174.44381 | 2071 ft | 306 kts | 229° |
| 2026-04-21 06:53 | -36.20449 | 174.42310 | 2228 ft | 315 kts | 229° |
| 2026-04-21 06:53 | -36.21921 | 174.40261 | 2278 ft | 322 kts | 220° |
| 2026-04-21 06:53 | -36.23869 | 174.38911 | 2144 ft | 324 kts | 198° |
| 2026-04-21 06:54 | -36.26060 | 174.38302 | 1880 ft | 322 kts | 189° |
| 2026-04-21 06:54 | -36.28256 | 174.37856 | 1910 ft | 317 kts | 189° |
| 2026-04-21 06:54 | -36.30437 | 174.37400 | 1830 ft | 320 kts | 189° |
| 2026-04-21 06:54 | -36.32644 | 174.37116 | 1726 ft | 317 kts | 179° |
| 2026-04-21 06:55 | -36.34812 | 174.37529 | 1924 ft | 316 kts | 169° |
| 2026-04-21 06:55 | -36.36982 | 174.38054 | 2072 ft | 317 kts | 169° |
| 2026-04-21 06:55 | -36.39164 | 174.38551 | 2197 ft | 320 kts | 170° |
| 2026-04-21 06:55 | -36.41353 | 174.39027 | 2326 ft | 320 kts | 170° |
| 2026-04-21 06:56 | -36.43551 | 174.39510 | 2436 ft | 321 kts | 170° |
| 2026-04-21 06:56 | -36.45753 | 174.40006 | 2473 ft | 323 kts | 170° |
| 2026-04-21 06:56 | -36.47958 | 174.40511 | 2471 ft | 322 kts | 170° |
| 2026-04-21 06:56 | -36.50120 | 174.41312 | 2161 ft | 324 kts | 158° |
| 2026-04-21 06:57 | -36.52094 | 174.42635 | 2203 ft | 322 kts | 148° |
| 2026-04-21 06:57 | -36.55171 | 174.45502 | 2274 ft | 3839 kts | 142° |
| 2026-04-21 06:57 | -36.60521 | 174.50793 | 2358 ft | 325 kts | 139° |
| 2026-04-21 06:57 | -36.62191 | 174.52719 | 2121 ft | 327 kts | 138° |
| 2026-04-21 06:58 | -36.63767 | 174.54730 | 2233 ft | 324 kts | 133° |
| 2026-04-21 06:58 | -36.65174 | 174.56893 | 2250 ft | 327 kts | 129° |
| 2026-04-21 06:58 | -36.66569 | 174.59132 | 2265 ft | 326 kts | 129° |
| 2026-04-21 06:58 | -36.67923 | 174.61403 | 2355 ft | 328 kts | 127° |
| 2026-04-21 06:59 | -36.69241 | 174.63730 | 2081 ft | 325 kts | 129° |
| 2026-04-21 06:59 | -36.70785 | 174.65587 | 1695 ft | 297 kts | 149° |
| 2026-04-21 06:59 | -36.72602 | 174.66558 | 1458 ft | 271 kts | 162° |
| 2026-04-21 06:59 | -36.74340 | 174.67154 | 1195 ft | 250 kts | 172° |
| 2026-04-21 07:00 | -36.76008 | 174.66979 | 840 ft | 238 kts | 201° |
| 2026-04-21 07:00 | -36.77329 | 174.65806 | 587 ft | 239 kts | 227° |
| 2026-04-21 07:00 | -36.78361 | 174.64123 | 390 ft | 248 kts | 232° |
| 2026-04-21 07:00 | -36.79336 | 174.62433 | 693 ft | 231 kts | 232° |
| 2026-04-21 07:01 | -36.80235 | 174.60887 | 1101 ft | 217 kts | 231° |
| 2026-04-21 07:01 | -36.81498 | 174.60164 | 1183 ft | 198 kts | 176° |
| 2026-04-21 07:01 | -36.82278 | 174.62875 | 1147 ft | 213 kts | 64° |
| 2026-04-21 07:02 | -36.81356 | 174.64314 | 1101 ft | 211 kts | 51° |
| 2026-04-21 07:02 | -36.80373 | 174.65656 | 1047 ft | 207 kts | 55° |
| 2026-04-21 07:02 | -36.79496 | 174.66954 | 1112 ft | 184 kts | 53° |
| 2026-04-21 07:02 | -36.78704 | 174.68058 | 1133 ft | 160 kts | 52° |
| 2026-04-21 07:03 | -36.77767 | 174.68597 | 1155 ft | 148 kts | 356° |
| 2026-04-21 07:03 | -36.76896 | 174.68079 | 1044 ft | 137 kts | 316° |
| 2026-04-21 07:03 | -36.76494 | 174.67062 | 884 ft | 130 kts | 263° |
| 2026-04-21 07:03 | -36.76969 | 174.66202 | 736 ft | 124 kts | 223° |
| 2026-04-21 07:04 | -36.77566 | 174.65397 | 583 ft | 127 kts | 224° |
| 2026-04-21 07:04 | -36.78130 | 174.64524 | 317 ft | 131 kts | 226° |
| 2026-04-21 07:04 | -36.78678 | 174.63634 | 81 ft | 122 kts | 232° |
| 2026-04-21 07:04 | -36.79095 | 174.62953 | 91 ft | 58 kts | 231° |
| 2026-04-21 07:05 | -36.79170 | 174.62819 | 97 ft | 13 kts | 231° |
| 2026-04-21 07:05 | -36.79272 | 174.62660 | 101 ft | 33 kts | 233° |
| 2026-04-21 07:05 | -36.79321 | 174.62503 | 107 ft | 8 kts | 333° |
| 2026-04-21 07:05 | -36.79249 | 174.62534 | 104 ft | 19 kts | 50° |
| 2026-04-21 07:06 | -36.79145 | 174.62627 | 99 ft | 6 kts | 351° |
| 2026-04-21 07:06 | -36.79136 | 174.62630 | 98 ft | 0 kts | 31° |